Terminal Aerodrome Forecast
Issued by NWS Albany, NY

Home | Current Version | Previous Version | Text Only | Print | Product List | Glossary On
Versions: 1 2 3 4 5 6 7 8 9 10 11 12 13 14 15 16 17 18 19 20 21 22 23 24
000
FTUS41 KALY 231200 AAA
TAFGFL
TAF AMD
KGFL 231206Z 2312/2412 19005KT P6SM OVC035
      TEMPO 2312/2314 5SM BR OVC030
     FM231400 19005KT P6SM OVC035
     FM232000 18006KT P6SM BKN035 BKN150
     FM240800 16004KT 5SM -RA BR OVC035=

USA.gov is the U.S. government's official web portal to all federal, state and local government web resources and services.